Nearby METAR Reports

 

EGTE - Exeter Airport, United Kingdom
Distance from station: S 19km
Updated: 21/04/2018 14:20
Few Clouds
Few Clouds
 Wind from SE
Wind: SE 15 km/h
Temperature: 20°C
Dew Point: 13°C
Humidity: 64%
Barometer: 1017 hPa
Clouds: Few Clouds
Visibility: 10 km
Cloud details: Few Clouds 914 m
2018/04/21 13:20 EGTE 211320Z 13008KT 090V170 9999 FEW030 20/13 Q1017
EGDY - Yeovilton (navy), United Kingdom
Distance from station: ENE 55km
Updated: 21/04/2018 13:50
Haze, Partly cloudy
Haze, Partly cloudy
 Wind from ESE
Wind: ESE 17 km/h
Temperature: 21°C
Dew Point: 15°C
Humidity: 69%
Barometer: 1018 hPa
Summary: Haze
Clouds: Partly cloudy
Visibility: 9 km
Cloud details: Few Clouds 1524 m
Partly cloudy 2438 m
2018/04/21 12:50 EGDY 211250Z 11009KT 9000 HZ FEW050 SCT080 21/15 Q1018 BLU NOSIG
 
EGFF - Cardiff-Wales Ar, United Kingdom
Distance from station: N 56km
Updated: 21/04/2018 14:20
Clear
Clear
 Wind from E
Wind: E 19 km/h
Temperature: 19°C
Dew Point: 13°C
Humidity: 68%
Barometer: 1017 hPa
Clouds: Clear
Visibility: 10 km
2018/04/21 13:20 EGFF 211320Z AUTO 10010KT 9999 NCD 19/13 Q1017
EGDX - St Athan Raf, United Kingdom
Distance from station: N 58km
Updated: 21/04/2018 13:50
Clear
Clear
 Wind from E
Wind: E 17 km/h
Temperature: 18°C
Dew Point: 13°C
Humidity: 73%
Barometer: 1017 hPa
Summary: Clear
Visibility: greater than 10 km
2018/04/21 12:50 EGDX 211250Z 09009KT CAVOK 18/13 Q1017 BLU
 
EGGD - Bristol/Lulsgate, United Kingdom
Distance from station: NE 71km
Updated: 21/04/2018 14:20
Clear
Clear
 Wind from ESE
Wind: ESE 19 km/h
Temperature: 19°C
Dew Point: 15°C
Humidity: 78%
Barometer: 1018 hPa
Clouds: Clear
Visibility: 10 km
2018/04/21 13:20 EGGD 211320Z AUTO 11010KT 9999 NCD 19/15 Q1018